Time;durP1;ratioP1;P1;durP2;ratioP2;P2;SDS_P1;SDS_P2;PMS_P1;PMS_P2;Temp;Humidity;BMP_temperature;BMP_pressure;BME280_temperature;BME280_humidity;BME280_pressure;Samples;Min_cycle;Max_cycle;Signal;HPM_P1;HPM_P2
2023/05/06 00:02:14;;;;;;;3.80;2.03;;;;;;;15.57;54.97;99945.44;10522852;28;20048;-63
2023/05/06 00:07:15;;;;;;;3.30;1.80;;;;;;;15.44;54.48;99945.53;10524066;28;20079;-63
2023/05/06 00:12:17;;;;;;;5.85;2.10;;;;;;;15.32;54.90;99946.50;10488931;28;20048;-63
2023/05/06 00:17:19;;;;;;;6.88;2.33;;;;;;;15.17;55.26;99950.34;10505253;28;20118;-63
2023/05/06 00:22:21;;;;;;;4.45;2.38;;;;;;;14.85;55.80;99950.22;10523400;28;20349;-62
2023/05/06 00:27:23;;;;;;;3.90;2.20;;;;;;;14.87;55.96;99936.91;10523129;28;20040;-62
2023/05/06 00:32:24;;;;;;;5.75;2.38;;;;;;;14.92;55.91;99942.69;10505290;28;20132;-62
2023/05/06 00:37:26;;;;;;;5.30;1.92;;;;;;;14.85;56.17;99942.31;10522755;28;20044;-63
2023/05/06 00:42:31;;;;;;;3.78;1.98;;;;;;;14.75;56.62;99938.72;10504239;28;20504;-62
2023/05/06 00:47:33;;;;;;;4.85;2.40;;;;;;;14.79;56.49;99932.25;10504503;28;20138;-63
2023/05/06 00:52:35;;;;;;;3.05;2.05;;;;;;;14.72;56.68;99936.28;10522240;28;20089;-63
2023/05/06 00:57:39;;;;;;;4.22;1.98;;;;;;;14.68;56.57;99934.00;10521971;28;20048;-63
2023/05/06 01:02:41;;;;;;;4.18;2.17;;;;;;;14.59;57.05;99930.31;10503544;28;20048;-63
2023/05/06 01:08:21;;;;;;;5.00;2.22;;;;;;;14.37;57.58;99923.16;10521809;28;20524;-62
2023/05/06 01:13:34;;;;;;;4.78;2.15;;;;;;;14.32;57.47;99917.41;10486383;28;20052;-63
2023/05/06 01:18:37;;;;;;;4.40;2.15;;;;;;;14.13;57.78;99922.38;10521136;28;20044;-63
2023/05/06 01:23:56;;;;;;;4.15;2.28;;;;;;;13.93;58.54;99919.53;10520735;28;20091;-63
2023/05/06 01:29:01;;;;;;;8.40;2.53;;;;;;;13.82;58.50;99928.19;10520871;28;20090;-63
2023/05/06 01:34:17;;;;;;;4.25;2.20;;;;;;;13.78;59.00;99929.38;10502040;28;20551;-63
2023/05/06 01:39:27;;;;;;;5.05;2.40;;;;;;;13.74;58.93;99926.13;10502206;28;20377;-63
2023/05/06 01:44:32;;;;;;;5.50;2.63;;;;;;;13.69;59.22;99927.44;10520333;28;20503;-63
2023/05/06 01:49:35;;;;;;;5.72;2.80;;;;;;;13.64;58.80;99919.88;10520006;28;20488;-63
2023/05/06 01:54:37;;;;;;;5.00;2.60;;;;;;;13.48;59.08;99923.72;10517853;28;20039;-63
2023/05/06 01:59:39;;;;;;;6.70;2.45;;;;;;;13.42;58.97;99930.25;10484482;28;20052;-63
2023/05/06 02:04:41;;;;;;;4.28;2.50;;;;;;;13.26;59.21;99941.91;10519071;28;20044;-63
2023/05/06 02:09:43;;;;;;;6.00;2.40;;;;;;;13.08;59.78;99940.59;10501088;28;20094;-63
2023/05/06 02:14:45;;;;;;;4.47;2.47;;;;;;;12.95;59.98;99951.94;10500214;28;20098;-63
2023/05/06 02:19:47;;;;;;;5.30;2.50;;;;;;;12.83;60.06;99947.53;10500188;28;20048;-63
2023/05/06 02:24:49;;;;;;;4.78;2.78;;;;;;;12.67;60.47;99946.91;10500238;28;20120;-63
2023/05/06 02:29:50;;;;;;;7.20;3.20;;;;;;;12.62;60.31;99943.75;10516634;28;20139;-63
2023/05/06 02:34:52;;;;;;;7.72;3.70;;;;;;;12.56;60.52;99953.81;10518507;28;20204;-63
2023/05/06 02:39:56;;;;;;;5.93;3.83;;;;;;;12.56;61.05;99953.81;10518321;28;20068;-63
2023/05/06 02:44:57;;;;;;;6.00;3.90;;;;;;;12.50;60.83;99955.06;10516138;28;20055;-63
2023/05/06 02:49:59;;;;;;;6.75;4.43;;;;;;;12.42;61.26;99965.22;10499905;28;20052;-63
2023/05/06 02:55:01;;;;;;;6.63;3.15;;;;;;;12.36;61.33;99962.16;10533184;28;20137;-63
2023/05/06 03:00:05;;;;;;;4.90;3.25;;;;;;;12.32;61.08;99961.53;10482504;28;20518;-64
2023/05/06 03:05:07;;;;;;;6.60;3.60;;;;;;;12.06;61.23;99965.00;10516509;28;20054;-64
2023/05/06 03:10:10;;;;;;;7.05;4.53;;;;;;;12.02;61.82;99963.53;10481854;28;20086;-63
2023/05/06 03:15:12;;;;;;;6.35;4.18;;;;;;;12.03;61.70;99965.19;10515544;28;20146;-63
2023/05/06 03:20:14;;;;;;;8.32;5.60;;;;;;;11.84;61.73;99970.81;10499221;28;20056;-64
2023/05/06 03:25:23;;;;;;;8.38;4.15;;;;;;;11.78;62.01;99970.34;10499090;28;20356;-63
2023/05/06 03:30:26;;;;;;;5.80;3.10;;;;;;;11.83;61.87;99966.50;10514966;28;20047;-63
2023/05/06 03:35:31;;;;;;;5.70;2.85;;;;;;;11.83;61.40;99969.13;10498263;28;20106;-63
2023/05/06 03:40:34;;;;;;;9.38;3.05;;;;;;;11.71;61.28;99969.06;10498223;28;20054;-63
2023/05/06 03:45:37;;;;;;;8.02;2.88;;;;;;;11.69;61.27;99963.06;10481982;28;20137;-64
2023/05/06 03:50:39;;;;;;;5.75;3.40;;;;;;;11.65;61.21;99966.81;10532093;28;20044;-63
2023/05/06 03:55:41;;;;;;;6.70;2.97;;;;;;;11.71;61.45;99969.91;10517334;28;20036;-63
2023/05/06 04:00:45;;;;;;;7.25;2.80;;;;;;;11.81;61.02;99971.00;10497958;28;20044;-63
2023/05/06 04:05:48;;;;;;;6.07;3.90;;;;;;;11.65;61.43;99975.53;10498059;28;20147;-63
2023/05/06 04:10:54;;;;;;;6.25;3.30;;;;;;;11.67;61.30;99967.56;10515983;28;20071;-64
2023/05/06 04:16:01;;;;;;;5.15;3.50;;;;;;;11.74;60.83;99966.25;10498165;28;20408;-63
2023/05/06 04:21:13;;;;;;;4.90;3.10;;;;;;;11.77;60.73;99968.66;10489562;28;20051;-63
2023/05/06 04:26:19;;;;;;;6.00;2.90;;;;;;;11.70;60.77;99973.44;10523478;28;20127;-64
2023/05/06 04:31:22;;;;;;;6.18;3.20;;;;;;;11.73;60.78;99972.41;10505225;28;20040;-64
2023/05/06 04:36:25;;;;;;;7.90;3.72;;;;;;;11.91;60.32;99979.09;10505151;28;20470;-63
2023/05/06 04:41:48;;;;;;;6.30;3.67;;;;;;;12.35;59.67;99984.97;10504517;28;20470;-63
2023/05/06 04:46:55;;;;;;;5.65;3.88;;;;;;;13.62;57.08;99978.75;10538067;28;20047;-63
2023/05/06 04:51:57;;;;;;;6.50;3.80;;;;;;;15.20;54.18;99972.03;10522171;28;20071;-63
2023/05/06 04:57:02;;;;;;;5.70;3.50;;;;;;;17.84;48.45;99973.47;10504029;28;20050;-63
2023/05/06 05:02:06;;;;;;;7.60;2.88;;;;;;;19.92;44.49;99976.81;10503529;28;20101;-63
2023/05/06 05:07:08;;;;;;;4.55;2.67;;;;;;;21.55;41.01;99975.25;10486908;28;20060;-63
2023/05/06 05:12:10;;;;;;;9.43;3.00;;;;;;;20.54;41.18;99975.88;10486945;28;20048;-64
2023/05/06 05:17:15;;;;;;;5.65;3.55;;;;;;;18.24;44.76;99993.75;10486393;28;20044;-64
2023/05/06 05:22:19;;;;;;;6.20;3.53;;;;;;;16.77;47.85;100003.16;10502858;28;20044;-65
2023/05/06 05:27:22;;;;;;;4.90;3.00;;;;;;;15.68;49.82;100001.59;10521013;28;20036;-64
2023/05/06 05:32:25;;;;;;;5.65;3.95;;;;;;;15.31;51.00;100003.63;10520376;28;20032;-64
2023/05/06 05:37:27;;;;;;;7.30;3.90;;;;;;;14.95;52.13;100014.38;10485208;28;20162;-64
2023/05/06 05:42:32;;;;;;;5.07;3.70;;;;;;;14.75;52.97;100011.59;10502189;28;20155;-64
2023/05/06 05:47:38;;;;;;;5.45;3.83;;;;;;;14.58;53.74;100013.69;10503072;28;20044;-64
2023/05/06 05:52:42;;;;;;;5.88;3.50;;;;;;;14.46;54.44;100006.69;10501795;28;20675;-65
2023/05/06 05:57:44;;;;;;;6.53;4.47;;;;;;;14.32;54.74;100004.25;10501606;28;20044;-64
2023/05/06 06:02:46;;;;;;;7.53;4.78;;;;;;;14.31;54.80;100010.44;10534842;28;20105;-64
2023/05/06 06:07:53;;;;;;;8.73;4.70;;;;;;;14.47;54.86;100005.72;10484402;28;20036;-63
2023/05/06 06:12:57;;;;;;;6.05;4.32;;;;;;;14.82;54.70;100010.19;10500729;28;20040;-63
2023/05/06 06:18:02;;;;;;;9.35;4.65;;;;;;;15.22;54.04;100009.63;10534505;28;20097;-63
2023/05/06 06:23:07;;;;;;;8.13;4.53;;;;;;;15.64;53.52;100018.63;10500174;28;20047;-63
2023/05/06 06:28:09;;;;;;;5.78;4.15;;;;;;;16.30;52.96;100015.00;10500860;28;20051;-63
2023/05/06 06:33:12;;;;;;;7.63;4.22;;;;;;;16.41;52.08;100022.00;10500118;28;20400;-64
2023/05/06 06:38:14;;;;;;;8.98;4.03;;;;;;;16.65;51.91;100022.69;10499883;28;20056;-64
2023/05/06 06:43:18;;;;;;;7.97;4.20;;;;;;;16.40;52.43;100023.84;10515395;28;20044;-64
2023/05/06 06:48:43;;;;;;;7.47;4.10;;;;;;;16.43;52.38;100017.44;10511545;28;20520;-64
2023/05/06 06:53:47;;;;;;;6.43;3.63;;;;;;;16.32;52.22;100026.28;10518163;28;20052;-64
2023/05/06 06:58:48;;;;;;;6.57;3.38;;;;;;;16.45;51.85;100023.47;10517398;28;20131;-64
2023/05/06 07:03:53;;;;;;;7.88;3.83;;;;;;;16.48;51.72;100024.06;10517333;28;20142;-64
2023/05/06 07:08:55;;;;;;;5.38;2.80;;;;;;;16.96;50.44;100030.53;10517519;28;20055;-65
2023/05/06 07:13:57;;;;;;;4.35;2.97;;;;;;;17.33;50.34;100022.09;10517865;28;20093;-64
2023/05/06 07:19:00;;;;;;;4.07;2.80;;;;;;;17.98;48.58;100019.00;10517193;28;20169;-65
2023/05/06 07:24:02;;;;;;;4.32;2.63;;;;;;;18.81;47.43;100012.22;10516668;28;20040;-64
2023/05/06 07:29:04;;;;;;;5.57;2.60;;;;;;;19.39;45.74;100019.09;10517034;28;20042;-64
2023/05/06 07:34:06;;;;;;;7.13;2.70;;;;;;;19.30;45.60;100021.78;10516941;28;20058;-64
2023/05/06 07:39:09;;;;;;;6.88;2.47;;;;;;;19.65;44.73;100011.31;10516781;28;20422;-64
2023/05/06 07:44:11;;;;;;;4.85;2.60;;;;;;;19.77;44.97;100011.94;10516298;28;20056;-64
2023/05/06 07:49:13;;;;;;;4.57;2.42;;;;;;;19.84;44.84;100013.06;10516723;28;20318;-64
2023/05/06 07:54:15;;;;;;;4.25;2.20;;;;;;;20.09;44.50;100013.16;10522242;28;20405;-64
2023/05/06 07:59:16;;;;;;;5.00;2.20;;;;;;;20.41;43.11;100019.78;10524378;28;20761;-64
2023/05/06 08:04:18;;;;;;;4.35;2.05;;;;;;;20.84;42.53;100018.03;10524294;28;20129;-64
2023/05/06 08:09:21;;;;;;;5.47;2.40;;;;;;;21.92;40.79;100018.31;10523871;28;20040;-64
2023/05/06 08:14:27;;;;;;;5.22;2.40;;;;;;;22.08;40.73;100015.72;10523769;28;20657;-64
2023/05/06 08:19:29;;;;;;;3.95;2.05;;;;;;;22.08;40.45;100018.38;10523784;28;20121;-64
2023/05/06 08:24:31;;;;;;;4.20;2.25;;;;;;;22.45;39.57;100024.09;10523024;28;20052;-64
2023/05/06 08:29:33;;;;;;;4.30;2.00;;;;;;;22.49;39.33;100019.28;10505039;28;20418;-64
2023/05/06 08:34:35;;;;;;;5.13;2.00;;;;;;;22.64;39.56;100018.44;10523266;28;20048;-64
2023/05/06 08:39:36;;;;;;;3.42;1.70;;;;;;;22.34;39.52;100016.44;10522634;28;20438;-64
2023/05/06 08:44:38;;;;;;;5.75;1.92;;;;;;;22.56;38.94;100009.59;10538033;28;20479;-64
2023/05/06 08:49:40;;;;;;;3.20;1.70;;;;;;;23.17;38.51;100007.25;10522528;28;20056;-64
2023/05/06 08:54:43;;;;;;;2.28;1.45;;;;;;;23.17;37.43;100009.91;10522082;28;20040;-66
2023/05/06 08:59:46;;;;;;;4.25;1.48;;;;;;;23.39;35.82;100003.03;10522198;28;20139;-64
2023/05/06 09:04:48;;;;;;;4.63;1.50;;;;;;;23.99;35.38;99993.44;10520381;28;20055;-64
2023/05/06 09:09:51;;;;;;;2.22;1.10;;;;;;;24.52;33.83;99994.44;10521671;28;20132;-64
2023/05/06 09:14:54;;;;;;;2.95;1.30;;;;;;;24.39;33.96;99992.34;10521257;28;20044;-64
2023/05/06 09:19:56;;;;;;;3.53;1.33;;;;;;;24.26;34.68;99987.63;10521504;28;20093;-64
2023/05/06 09:24:58;;;;;;;4.10;1.35;;;;;;;24.68;34.92;99986.28;10520935;28;20273;-64
2023/05/06 09:30:05;;;;;;;2.55;1.30;;;;;;;23.65;35.09;99978.75;10520910;28;20052;-64
2023/05/06 09:35:08;;;;;;;2.17;1.33;;;;;;;23.65;36.16;99978.75;10520308;28;20044;-64
2023/05/06 09:40:11;;;;;;;1.25;1.00;;;;;;;23.52;35.83;99970.47;10520262;28;20043;-64
2023/05/06 09:45:15;;;;;;;4.13;1.42;;;;;;;22.85;37.24;99977.97;10520680;28;20078;-64
2023/05/06 09:50:16;;;;;;;3.03;1.20;;;;;;;22.69;38.18;99973.47;10520163;28;20139;-64
2023/05/06 09:55:20;;;;;;;5.03;1.30;;;;;;;23.19;37.71;99980.38;10519713;28;20059;-64
2023/05/06 10:00:26;;;;;;;2.70;0.90;;;;;;;24.04;36.10;99956.31;10519145;28;20082;-64
2023/05/06 10:05:30;;;;;;;2.75;1.10;;;;;;;25.20;33.26;99959.53;10519447;28;20488;-64
2023/05/06 10:10:40;;;;;;;2.05;1.20;;;;;;;25.54;31.35;99954.47;10518933;28;20300;-64
2023/05/06 10:15:45;;;;;;;2.42;1.10;;;;;;;26.00;31.53;99944.31;10518672;28;20044;-64
2023/05/06 10:20:48;;;;;;;2.63;1.23;;;;;;;26.07;31.46;99939.84;10518888;28;20047;-64
2023/05/06 10:25:54;;;;;;;2.08;1.13;;;;;;;25.19;32.12;99936.44;10518604;28;20078;-63
2023/05/06 10:30:57;;;;;;;2.45;1.15;;;;;;;25.01;32.58;99937.66;10518399;28;20058;-63
2023/05/06 10:36:14;;;;;;;2.17;1.10;;;;;;;24.87;32.64;99922.44;10518252;28;20647;-63
2023/05/06 10:41:17;;;;;;;1.77;1.00;;;;;;;24.18;33.20;99920.84;10499845;28;20144;-64
2023/05/06 10:46:18;;;;;;;2.13;1.00;;;;;;;24.04;32.58;99920.78;10518061;28;20550;-63
2023/05/06 10:51:25;;;;;;;1.90;1.00;;;;;;;23.45;33.07;99915.09;10517737;28;20567;-64
2023/05/06 10:56:29;;;;;;;2.47;1.00;;;;;;;23.55;33.55;99909.56;10517490;28;20184;-63
2023/05/06 11:01:31;;;;;;;2.65;1.02;;;;;;;23.28;33.68;99910.00;10517150;28;20082;-64
2023/05/06 11:06:35;;;;;;;4.22;1.10;;;;;;;23.55;32.90;99911.41;10517207;28;20476;-64
2023/05/06 11:12:00;;;;;;;3.90;1.00;;;;;;;23.93;32.78;99911.31;10516315;28;20404;-64
2023/05/06 11:17:08;;;;;;;2.63;1.13;;;;;;;23.97;32.31;99896.59;10532347;28;20044;-64
2023/05/06 11:22:39;;;;;;;1.70;0.80;;;;;;;23.83;30.24;99897.38;10532711;28;20044;-64
2023/05/06 11:27:41;;;;;;;2.25;1.00;;;;;;;23.88;31.55;99892.31;10485989;28;20085;-63
2023/05/06 11:32:45;;;;;;;1.88;0.90;;;;;;;24.06;30.63;99886.69;10525450;28;20139;-64
2023/05/06 11:37:47;;;;;;;3.60;1.10;;;;;;;24.20;31.08;99878.75;10525184;28;20055;-64
2023/05/06 11:42:49;;;;;;;3.47;1.20;;;;;;;23.79;32.16;99879.22;10524689;28;20454;-64
2023/05/06 11:47:53;;;;;;;2.83;1.13;;;;;;;23.86;31.69;99874.81;10525848;28;20138;-64
2023/05/06 11:52:56;;;;;;;1.90;0.90;;;;;;;24.15;30.48;99869.59;10524613;28;20480;-64
2023/05/06 11:57:58;;;;;;;3.95;1.00;;;;;;;24.40;31.50;99868.38;10524477;28;20563;-64
2023/05/06 12:03:01;;;;;;;1.17;0.90;;;;;;;24.08;31.61;99872.16;10500750;28;20055;-64
2023/05/06 12:08:03;;;;;;;4.32;1.20;;;;;;;24.10;31.19;99866.66;10524079;28;20404;-64
2023/05/06 12:13:15;;;;;;;3.20;1.00;;;;;;;23.79;31.56;99868.53;10523585;28;20040;-64
2023/05/06 12:18:17;;;;;;;1.65;1.00;;;;;;;23.90;31.93;99866.25;10523610;28;20086;-64
2023/05/06 12:23:20;;;;;;;1.85;0.98;;;;;;;24.52;31.62;99869.59;10488973;28;20069;-64
2023/05/06 12:28:22;;;;;;;1.38;0.80;;;;;;;24.07;30.55;99858.97;10523197;28;20530;-64
2023/05/06 12:33:24;;;;;;;1.70;0.90;;;;;;;23.86;31.13;99858.81;10522657;28;20052;-64
2023/05/06 12:38:26;;;;;;;2.28;1.00;;;;;;;24.02;31.72;99858.66;10522620;28;20147;-64
2023/05/06 12:43:29;;;;;;;1.38;0.80;;;;;;;24.07;31.87;99851.81;10522508;28;20075;-64
2023/05/06 12:48:31;;;;;;;1.88;0.80;;;;;;;23.91;29.70;99843.06;10522503;28;20451;-64
2023/05/06 12:53:34;;;;;;;2.33;0.90;;;;;;;24.37;29.66;99841.19;10522150;28;20048;-64
2023/05/06 12:58:36;;;;;;;2.42;1.00;;;;;;;24.64;29.23;99840.56;10521998;28;20515;-64
2023/05/06 13:03:39;;;;;;;1.42;0.73;;;;;;;24.71;28.19;99838.81;10521906;28;20058;-64
2023/05/06 13:08:42;;;;;;;2.40;1.10;;;;;;;24.74;28.37;99843.81;10521447;28;20059;-64
2023/05/06 13:13:44;;;;;;;3.22;0.77;;;;;;;24.78;28.49;99840.59;10521532;28;20048;-64
2023/05/06 13:18:46;;;;;;;3.65;1.10;;;;;;;24.71;28.23;99845.03;10521373;28;20090;-64
2023/05/06 13:23:48;;;;;;;2.45;0.95;;;;;;;24.70;28.33;99835.31;10521299;28;20045;-64
2023/05/06 13:28:50;;;;;;;2.35;0.93;;;;;;;24.83;28.92;99827.50;10521634;28;20044;-64
2023/05/06 13:33:52;;;;;;;3.33;1.20;;;;;;;25.03;29.02;99825.06;10520866;28;20043;-64
2023/05/06 13:38:54;;;;;;;2.55;1.10;;;;;;;25.19;28.76;99819.50;10520527;28;20044;-64
2023/05/06 13:43:56;;;;;;;2.58;0.80;;;;;;;25.28;27.75;99823.75;10520432;28;20113;-64
2023/05/06 13:48:58;;;;;;;2.17;0.98;;;;;;;24.79;29.96;99822.72;10519413;28;20071;-65
2023/05/06 13:54:00;;;;;;;1.00;0.77;;;;;;;24.04;32.31;99814.72;10520121;28;20048;-65
2023/05/06 13:59:03;;;;;;;2.13;1.00;;;;;;;23.99;32.69;99819.78;10519251;28;20135;-64
2023/05/06 14:04:04;;;;;;;3.60;1.00;;;;;;;24.20;32.83;99813.78;10534959;28;20492;-64
2023/05/06 14:09:06;;;;;;;2.10;1.00;;;;;;;23.79;32.97;99813.28;10519757;28;20135;-64
2023/05/06 14:14:08;;;;;;;2.58;1.00;;;;;;;23.78;33.88;99822.28;10518660;28;20168;-64
2023/05/06 14:19:10;;;;;;;3.25;1.20;;;;;;;23.93;32.96;99809.81;10518891;28;20480;-64
2023/05/06 14:24:12;;;;;;;1.88;0.98;;;;;;;23.93;33.79;99808.97;10518252;28;20143;-64
2023/05/06 14:29:14;;;;;;;2.03;1.00;;;;;;;24.20;32.09;99805.78;10518917;28;20054;-64
2023/05/06 14:34:16;;;;;;;1.30;0.95;;;;;;;24.32;31.81;99809.66;10518688;28;20565;-64
2023/05/06 14:39:17;;;;;;;1.95;0.90;;;;;;;24.39;31.27;99801.75;10518070;28;20109;-64
2023/05/06 14:44:20;;;;;;;1.70;0.90;;;;;;;24.29;31.96;99799.31;10517697;28;20426;-64
2023/05/06 14:49:22;;;;;;;1.27;0.90;;;;;;;24.23;32.50;99792.88;10517849;28;20134;-64
2023/05/06 14:54:25;;;;;;;7.15;1.20;;;;;;;24.20;31.76;99792.41;10517760;28;20601;-64
2023/05/06 14:59:27;;;;;;;1.67;1.00;;;;;;;23.97;32.01;99794.25;10517433;28;20071;-64
2023/05/06 15:04:29;;;;;;;7.78;1.10;;;;;;;23.80;31.69;99796.22;10517110;28;20478;-64
2023/05/06 15:09:31;;;;;;;4.05;1.10;;;;;;;23.39;32.83;99802.84;10517097;28;20414;-64
2023/05/06 15:14:33;;;;;;;3.42;1.27;;;;;;;23.07;33.93;99795.00;10499334;28;20065;-64
2023/05/06 15:19:35;;;;;;;2.78;1.48;;;;;;;22.65;34.77;99804.19;10516744;28;20555;-64
2023/05/06 15:24:36;;;;;;;4.18;2.20;;;;;;;22.26;35.61;99821.94;10516927;28;20062;-64
2023/05/06 15:29:38;;;;;;;8.90;1.60;;;;;;;21.81;38.79;99832.22;10516532;28;20048;-63
2023/05/06 15:34:40;;;;;;;3.63;1.15;;;;;;;21.39;43.14;99842.16;10516476;28;20040;-64
2023/05/06 15:39:42;;;;;;;2.60;1.23;;;;;;;20.86;44.41;99853.06;10498364;28;20408;-63
2023/05/06 15:44:47;;;;;;;7.63;1.35;;;;;;;20.64;45.71;99856.25;10516542;28;20052;-63
2023/05/06 15:49:49;;;;;;;4.97;1.40;;;;;;;20.38;48.95;99864.19;10516497;28;20055;-63
2023/05/06 15:54:55;;;;;;;2.35;1.30;;;;;;;20.37;50.25;99862.53;10516210;28;20036;-63
2023/05/06 16:00:00;;;;;;;2.58;1.30;;;;;;;20.23;49.95;99861.25;10516172;28;20044;-63
2023/05/06 16:05:06;;;;;;;3.25;1.30;;;;;;;19.56;50.47;99860.97;10515627;28;20059;-63
2023/05/06 16:10:08;;;;;;;3.70;1.48;;;;;;;19.02;52.08;99850.41;10515981;28;20408;-63
2023/05/06 16:15:10;;;;;;;5.60;1.60;;;;;;;19.26;50.95;99856.81;10521637;28;20044;-63
2023/05/06 16:20:12;;;;;;;5.43;1.60;;;;;;;19.56;53.46;99862.78;10523495;28;20083;-63
2023/05/06 16:25:15;;;;;;;4.20;1.60;;;;;;;19.45;52.20;99869.13;10523547;28;20051;-63
2023/05/06 16:30:16;;;;;;;5.40;1.60;;;;;;;19.18;51.37;99869.16;10523585;28;20143;-63
2023/05/06 16:35:18;;;;;;;3.17;1.30;;;;;;;18.97;51.32;99872.00;10520803;28;20052;-63
2023/05/06 16:40:20;;;;;;;3.22;1.33;;;;;;;18.73;50.94;99866.38;10519107;28;20024;-63
2023/05/06 16:45:22;;;;;;;3.33;1.70;;;;;;;18.71;52.01;99868.34;10517260;28;20054;-64
2023/05/06 16:50:24;;;;;;;5.07;1.73;;;;;;;18.70;51.98;99885.25;10515129;28;20391;-66
2023/05/06 16:55:26;;;;;;;2.80;1.40;;;;;;;18.79;51.38;99876.41;10515436;28;20404;-65
2023/05/06 17:00:28;;;;;;;4.65;1.50;;;;;;;18.70;52.52;99868.50;10511094;28;20043;-64
2023/05/06 17:05:29;;;;;;;4.05;1.40;;;;;;;18.40;53.44;99873.03;10527538;28;20510;-64
2023/05/06 17:10:31;;;;;;;5.07;1.60;;;;;;;18.41;54.26;99876.53;10513310;28;20127;-64
2023/05/06 17:15:33;;;;;;;3.00;1.30;;;;;;;18.36;54.96;99873.47;10512690;28;20067;-65
2023/05/06 17:20:35;;;;;;;5.80;2.70;;;;;;;18.24;55.47;99872.78;10509763;28;20362;-65
2023/05/06 17:25:55;;;;;;;2.60;1.23;;;;;;;17.89;56.17;99877.81;10512522;28;20436;-64
2023/05/06 17:30:57;;;;;;;3.88;1.58;;;;;;;17.78;55.89;99876.13;10493277;28;20139;-65
2023/05/06 17:35:59;;;;;;;5.63;2.53;;;;;;;17.65;55.90;99880.84;10509456;28;20393;-64
2023/05/06 17:41:01;;;;;;;6.82;3.40;;;;;;;17.61;56.89;99887.38;10491011;28;20040;-64
2023/05/06 17:46:03;;;;;;;6.05;2.17;;;;;;;17.67;56.71;99884.19;10489754;28;20667;-64
2023/05/06 17:51:05;;;;;;;4.75;1.60;;;;;;;17.69;55.97;99866.38;10508577;28;20043;-64
2023/05/06 17:56:07;;;;;;;2.97;1.52;;;;;;;17.62;56.18;99875.84;10507548;28;20076;-64
2023/05/06 18:01:09;;;;;;;3.33;1.75;;;;;;;17.48;56.78;99876.25;10499255;28;20043;-64
2023/05/06 18:06:17;;;;;;;2.55;1.55;;;;;;;17.60;57.32;99872.50;10504719;28;20052;-64
2023/05/06 18:11:22;;;;;;;3.47;1.60;;;;;;;17.45;57.38;99876.50;10483526;28;20124;-64
2023/05/06 18:16:26;;;;;;;4.32;1.50;;;;;;;17.16;57.89;99878.19;10486520;28;20048;-65
2023/05/06 18:21:28;;;;;;;3.58;1.60;;;;;;;17.30;58.46;99885.75;10502678;28;20279;-65
2023/05/06 18:26:32;;;;;;;4.35;1.55;;;;;;;17.27;58.87;99871.97;10502387;28;20491;-66
2023/05/06 18:31:45;;;;;;;6.47;1.98;;;;;;;17.40;58.19;99883.19;10501525;28;20089;-65
2023/05/06 18:36:47;;;;;;;5.22;2.92;;;;;;;16.93;58.47;99892.59;10506068;28;20060;-64
2023/05/06 18:41:49;;;;;;;4.32;1.88;;;;;;;16.62;59.62;99888.25;10504228;28;21525;-65
2023/05/06 18:46:51;;;;;;;6.05;2.42;;;;;;;16.66;58.86;99901.06;10500525;28;20036;-65
2023/05/06 18:51:53;;;;;;;4.45;1.90;;;;;;;16.90;58.52;99900.75;10474833;28;20062;-65
2023/05/06 18:56:56;;;;;;;4.28;1.63;;;;;;;17.11;57.47;99898.06;10502163;28;20043;-65
2023/05/06 19:02:00;;;;;;;4.28;1.80;;;;;;;17.25;57.97;99902.97;10503719;28;20123;-65
2023/05/06 19:07:03;;;;;;;6.53;2.72;;;;;;;17.18;58.38;99915.09;10498105;28;20048;-65
2023/05/06 19:12:05;;;;;;;5.40;2.33;;;;;;;17.24;58.33;99912.72;10500850;28;20047;-64
2023/05/06 19:17:07;;;;;;;3.65;2.05;;;;;;;16.90;58.32;99906.03;10501614;28;20119;-63
2023/05/06 19:22:09;;;;;;;6.13;2.70;;;;;;;16.59;58.77;99899.91;10496412;28;20133;-63
2023/05/06 19:27:11;;;;;;;3.90;2.00;;;;;;;16.49;59.29;99903.47;10477217;28;20063;-63
2023/05/06 19:32:13;;;;;;;5.50;2.90;;;;;;;16.61;60.53;99911.19;10501412;28;20404;-63
2023/05/06 19:37:15;;;;;;;5.00;2.72;;;;;;;16.50;60.24;99907.78;10502023;28;20052;-63
2023/05/06 19:42:17;;;;;;;4.88;2.30;;;;;;;16.55;60.33;99911.69;10503912;28;20036;-63
2023/05/06 19:47:19;;;;;;;6.57;2.00;;;;;;;16.67;60.14;99912.47;10505319;28;20048;-63
2023/05/06 19:52:25;;;;;;;7.47;2.00;;;;;;;16.74;60.07;99914.47;10491354;28;20052;-63
2023/05/06 19:57:28;;;;;;;4.88;2.08;;;;;;;16.79;60.18;99909.59;10508354;28;20032;-63
2023/05/06 20:02:31;;;;;;;5.07;1.98;;;;;;;16.73;60.05;99923.34;10508417;28;20215;-64
2023/05/06 20:07:33;;;;;;;4.32;1.90;;;;;;;16.75;60.12;99915.31;10511826;28;20089;-64
2023/05/06 20:12:36;;;;;;;4.22;1.83;;;;;;;16.75;60.01;99916.13;10507733;28;20054;-64
2023/05/06 20:17:38;;;;;;;4.40;1.77;;;;;;;16.75;59.82;99907.38;10507304;28;20637;-65
2023/05/06 20:22:40;;;;;;;4.78;1.90;;;;;;;16.71;59.96;99908.63;10510966;28;20400;-64
2023/05/06 20:27:43;;;;;;;3.65;1.98;;;;;;;16.67;59.79;99904.56;10508208;28;20089;-64
2023/05/06 20:32:46;;;;;;;3.25;1.70;;;;;;;16.62;60.07;99909.38;10489404;28;20059;-64
2023/05/06 20:37:50;;;;;;;4.82;1.70;;;;;;;16.65;60.23;99909.13;10513388;28;20449;-64
2023/05/06 20:42:52;;;;;;;4.38;1.83;;;;;;;16.65;60.31;99920.50;10492346;28;20044;-64
2023/05/06 20:47:55;;;;;;;5.72;2.10;;;;;;;16.65;60.17;99919.69;10514605;28;20691;-64
2023/05/06 20:52:57;;;;;;;3.28;1.90;;;;;;;16.62;60.54;99919.94;10528455;28;20047;-63
2023/05/06 20:57:59;;;;;;;3.20;1.90;;;;;;;16.65;60.46;99919.69;10526945;28;20048;-64
2023/05/06 21:03:01;;;;;;;5.68;2.00;;;;;;;16.65;60.36;99924.97;10511666;28;20380;-64
2023/05/06 21:08:03;;;;;;;5.80;2.00;;;;;;;16.55;60.46;99918.81;10511750;28;20041;-64
2023/05/06 21:13:05;;;;;;;3.90;2.13;;;;;;;16.45;60.94;99926.63;10511086;28;20313;-64
2023/05/06 21:18:07;;;;;;;4.25;2.60;;;;;;;16.39;61.15;99923.63;10511886;28;20042;-64
2023/05/06 21:23:09;;;;;;;3.55;2.00;;;;;;;16.43;61.11;99927.69;10510046;28;20496;-65
2023/05/06 21:28:12;;;;;;;3.88;2.35;;;;;;;16.34;61.36;99931.13;10510462;28;20040;-62
2023/05/06 21:33:14;;;;;;;6.75;2.50;;;;;;;16.40;61.08;99927.97;10510381;28;20613;-63
2023/05/06 21:38:16;;;;;;;4.88;2.17;;;;;;;16.40;61.19;99936.72;10509907;28;20052;-63
2023/05/06 21:43:17;;;;;;;5.75;2.20;;;;;;;16.16;61.43;99929.03;10511519;28;20554;-64
2023/05/06 21:48:19;;;;;;;8.38;2.60;;;;;;;16.01;61.61;99926.84;10509564;28;20048;-64
2023/05/06 21:53:21;;;;;;;7.05;2.50;;;;;;;15.80;62.14;99929.41;10492054;28;20046;-63
2023/05/06 21:58:23;;;;;;;4.97;2.20;;;;;;;15.77;62.10;99926.19;10490319;28;20407;-63
2023/05/06 22:03:26;;;;;;;4.18;2.28;;;;;;;15.82;62.71;99924.00;10508700;28;20499;-63
2023/05/06 22:08:28;;;;;;;5.72;2.25;;;;;;;15.92;62.36;99917.03;10508566;28;20571;-63
2023/05/06 22:13:30;;;;;;;4.63;2.30;;;;;;;16.03;62.13;99922.28;10522524;28;20606;-63
2023/05/06 22:18:34;;;;;;;7.57;2.45;;;;;;;16.08;62.07;99928.03;10507112;28;20055;-64
2023/05/06 22:23:39;;;;;;;7.70;2.13;;;;;;;16.05;61.90;99922.97;10508798;28;20138;-64
2023/05/06 22:28:42;;;;;;;5.75;2.22;;;;;;;16.09;62.04;99922.59;10485524;28;20527;-63
2023/05/06 22:33:46;;;;;;;5.70;2.28;;;;;;;16.07;61.84;99919.25;10488792;28;20036;-63
2023/05/06 22:38:48;;;;;;;8.48;2.20;;;;;;;15.94;61.55;99923.84;10507820;28;20064;-65
2023/05/06 22:43:51;;;;;;;6.03;2.10;;;;;;;15.85;61.76;99921.13;10507335;28;20183;-65
2023/05/06 22:48:52;;;;;;;4.10;2.45;;;;;;;15.73;61.92;99924.78;10507643;28;20658;-64
2023/05/06 22:53:57;;;;;;;4.38;2.40;;;;;;;15.59;61.92;99923.22;10506478;28;20032;-65
2023/05/06 22:58:59;;;;;;;3.63;2.22;;;;;;;15.51;61.74;99912.47;10503556;28;20612;-64
2023/05/06 23:04:00;;;;;;;5.32;2.20;;;;;;;15.53;61.47;99904.47;10504399;28;20423;-64
2023/05/06 23:09:05;;;;;;;4.53;2.10;;;;;;;15.47;61.45;99908.38;10507711;28;20309;-64
2023/05/06 23:14:07;;;;;;;4.20;1.80;;;;;;;15.49;61.54;99906.47;10505392;28;20131;-64
2023/05/06 23:19:09;;;;;;;5.22;2.13;;;;;;;15.48;61.54;99915.34;10507085;28;20048;-64
2023/05/06 23:24:10;;;;;;;3.67;2.10;;;;;;;15.47;61.54;99911.00;10504593;28;20216;-64
2023/05/06 23:29:12;;;;;;;3.90;2.10;;;;;;;15.34;61.72;99913.81;10503804;28;20522;-64